createdAt,value
2019-02-11T00:00:59.575Z,964.82
2019-02-11T00:01:59.538Z,964.88
2019-02-11T00:02:59.503Z,964.94
2019-02-11T00:04:00.019Z,964.95
2019-02-11T00:04:59.416Z,964.93
2019-02-11T00:05:59.428Z,965.01
2019-02-11T00:06:59.350Z,965.04
2019-02-11T00:07:59.315Z,965.07
2019-02-11T00:08:59.260Z,965.14
2019-02-11T00:09:59.225Z,965.03
2019-02-11T00:10:59.690Z,965.15
2019-02-11T00:11:59.203Z,965.20
2019-02-11T00:12:59.091Z,965.15
2019-02-11T00:13:59.179Z,965.29
2019-02-11T00:14:58.992Z,965.14
2019-02-11T00:15:58.977Z,965.27
2019-02-11T00:16:58.920Z,965.27
2019-02-11T00:17:58.880Z,965.32
2019-02-11T00:18:58.836Z,965.33
2019-02-11T00:19:58.802Z,965.31
2019-02-11T00:20:58.760Z,965.33
2019-02-11T00:21:58.711Z,965.32
2019-02-11T00:22:58.676Z,965.33
2019-02-11T00:23:58.656Z,965.28
2019-02-11T00:24:58.675Z,965.38
2019-02-11T00:25:58.561Z,965.40
2019-02-11T00:26:58.521Z,965.40
2019-02-11T00:27:58.478Z,965.39
2019-02-11T00:28:58.446Z,965.50
2019-02-11T00:29:58.390Z,965.43
2019-02-11T00:30:58.381Z,965.56
2019-02-11T00:31:58.301Z,965.48
2019-02-11T00:32:58.339Z,965.50
2019-02-11T00:33:58.248Z,965.51
2019-02-11T00:34:58.201Z,965.60
2019-02-11T00:35:58.148Z,965.61
2019-02-11T00:36:58.103Z,965.65
2019-02-11T00:37:58.080Z,965.69
2019-02-11T00:38:58.026Z,965.66
2019-02-11T00:39:58.036Z,965.69
2019-02-11T00:40:57.950Z,965.68
2019-02-11T00:41:58.001Z,965.79
2019-02-11T00:42:57.864Z,965.73
2019-02-11T00:43:57.828Z,965.72
2019-02-11T00:44:57.801Z,965.76
2019-02-11T00:45:57.750Z,965.80
2019-02-11T00:46:57.693Z,965.86
2019-02-11T00:47:57.679Z,965.93
2019-02-11T00:48:57.624Z,965.88
2019-02-11T00:49:57.589Z,965.93
2019-02-11T00:50:57.556Z,966.00
2019-02-11T00:51:57.513Z,965.98
2019-02-11T00:52:57.473Z,966.00
2019-02-11T00:53:57.425Z,965.92
2019-02-11T00:54:57.409Z,966.03
2019-02-11T00:55:57.428Z,966.02
2019-02-11T00:56:57.282Z,966.13
2019-02-11T00:57:57.247Z,966.10
2019-02-11T00:58:57.247Z,966.12
2019-02-11T00:59:57.235Z,966.04
2019-02-11T01:00:58.781Z,966.19
2019-02-11T01:01:57.082Z,966.25
2019-02-11T01:02:57.034Z,966.27
2019-02-11T01:03:57.002Z,966.24
2019-02-11T01:04:56.992Z,966.33
2019-02-11T01:05:58.810Z,966.34
2019-02-11T01:06:56.874Z,966.35
2019-02-11T01:07:56.927Z,966.42
2019-02-11T01:08:56.818Z,966.45
2019-02-11T01:09:56.763Z,966.45
2019-02-11T01:10:56.713Z,966.48
2019-02-11T01:11:56.686Z,966.50
2019-02-11T01:12:56.655Z,966.52
2019-02-11T01:13:56.609Z,966.58
2019-02-11T01:14:56.555Z,966.57
2019-02-11T01:15:56.545Z,966.61
2019-02-11T01:16:56.460Z,966.69
2019-02-11T01:17:56.436Z,966.71
2019-02-11T01:18:56.373Z,966.66
2019-02-11T01:19:56.344Z,966.61
2019-02-11T01:20:56.293Z,966.65
2019-02-11T01:21:56.291Z,966.65
2019-02-11T01:22:56.222Z,966.72
2019-02-11T01:23:56.191Z,966.71
2019-02-11T01:24:56.140Z,966.72
2019-02-11T01:25:56.121Z,966.81
2019-02-11T01:26:56.070Z,966.84
2019-02-11T01:27:56.021Z,966.81
2019-02-11T01:28:56.001Z,966.89
2019-02-11T01:29:55.959Z,966.90
2019-02-11T01:30:55.924Z,966.98
2019-02-11T01:31:55.845Z,967.00
2019-02-11T01:32:55.803Z,967.02
2019-02-11T01:33:55.779Z,967.04
2019-02-11T01:34:55.728Z,967.09
2019-02-11T01:35:55.680Z,967.18
2019-02-11T01:36:55.646Z,967.17
2019-02-11T01:37:55.587Z,967.16
2019-02-11T01:38:55.560Z,967.28
2019-02-11T01:39:55.511Z,967.29
2019-02-11T01:40:55.466Z,967.33
2019-02-11T01:41:55.458Z,967.34
2019-02-11T01:42:55.402Z,967.39
2019-02-11T01:43:55.354Z,967.47
2019-02-11T01:44:55.312Z,967.47
2019-02-11T01:45:55.277Z,967.51
2019-02-11T01:46:55.266Z,967.52
2019-02-11T01:47:55.187Z,967.53
2019-02-11T01:48:55.162Z,967.50
2019-02-11T01:49:55.114Z,967.57
2019-02-11T01:50:55.074Z,967.61
2019-02-11T01:51:55.025Z,967.63
2019-02-11T01:52:54.968Z,967.80
2019-02-11T01:53:54.937Z,967.78
2019-02-11T01:54:54.899Z,967.75
2019-02-11T01:55:54.858Z,967.78
2019-02-11T01:56:54.809Z,967.78
2019-02-11T01:57:54.782Z,967.75
2019-02-11T01:58:54.728Z,967.83
2019-02-11T01:59:54.687Z,967.81
2019-02-11T02:00:54.644Z,967.82
2019-02-11T02:01:54.602Z,967.85
2019-02-11T02:02:54.581Z,967.82
2019-02-11T02:03:54.525Z,967.89
2019-02-11T02:04:54.474Z,967.90
2019-02-11T02:05:54.451Z,967.87
2019-02-11T02:06:54.390Z,967.89
2019-02-11T02:07:54.354Z,967.96
2019-02-11T02:08:54.308Z,967.93
2019-02-11T02:09:54.277Z,967.95
2019-02-11T02:10:54.228Z,967.97
2019-02-11T02:11:54.227Z,967.98
2019-02-11T02:12:54.150Z,968.01
2019-02-11T02:13:54.113Z,968.01
2019-02-11T02:14:54.078Z,968.08
2019-02-11T02:15:54.033Z,968.09
2019-02-11T02:16:53.994Z,968.10
2019-02-11T02:17:53.955Z,968.12
2019-02-11T02:18:53.917Z,968.10
2019-02-11T02:19:53.853Z,968.16
2019-02-11T02:20:53.828Z,968.19
2019-02-11T02:21:53.772Z,968.13
2019-02-11T02:22:53.749Z,968.15
2019-02-11T02:23:53.677Z,968.24
2019-02-11T02:24:53.641Z,968.21
2019-02-11T02:25:53.604Z,968.28
2019-02-11T02:26:53.558Z,968.29
2019-02-11T02:27:53.523Z,968.28
2019-02-11T02:28:53.483Z,968.25
2019-02-11T02:29:53.433Z,968.27
2019-02-11T02:30:53.390Z,968.31
2019-02-11T02:31:53.345Z,968.31
2019-02-11T02:32:53.322Z,968.33
2019-02-11T02:33:53.281Z,968.42
2019-02-11T02:34:53.242Z,968.40
2019-02-11T02:35:53.196Z,968.43
2019-02-11T02:36:53.146Z,968.43
2019-02-11T02:37:53.100Z,968.44
2019-02-11T02:38:53.088Z,968.45
2019-02-11T02:39:53.019Z,968.49
2019-02-11T02:40:52.963Z,968.55
2019-02-11T02:41:53.695Z,968.56
2019-02-11T02:42:52.895Z,968.52
2019-02-11T02:43:55.554Z,968.57
2019-02-11T02:44:52.797Z,968.61
2019-02-11T02:45:52.777Z,968.60
2019-02-11T02:46:52.731Z,968.64
2019-02-11T02:47:52.697Z,968.66
2019-02-11T02:48:52.655Z,968.67
2019-02-11T02:49:52.611Z,968.68
2019-02-11T02:50:52.566Z,968.77
2019-02-11T02:51:52.544Z,968.79
2019-02-11T02:52:52.472Z,968.81
2019-02-11T02:53:52.427Z,968.81
2019-02-11T02:54:52.385Z,968.89
2019-02-11T02:55:52.342Z,968.93
2019-02-11T02:56:52.313Z,968.89
2019-02-11T02:57:52.262Z,968.94
2019-02-11T02:58:52.293Z,969.01
2019-02-11T02:59:52.187Z,968.96
2019-02-11T03:00:52.146Z,969.06
2019-02-11T03:01:52.102Z,969.22
2019-02-11T03:02:52.078Z,969.11
2019-02-11T03:03:52.014Z,969.11
2019-02-11T03:04:51.989Z,969.21
2019-02-11T03:05:52.954Z,969.17
2019-02-11T03:06:51.880Z,969.27
2019-02-11T03:07:51.831Z,969.25
2019-02-11T03:08:51.801Z,969.30
2019-02-11T03:09:51.755Z,969.35
2019-02-11T03:10:51.792Z,969.33
2019-02-11T03:11:51.694Z,969.32
2019-02-11T03:12:51.632Z,969.37
2019-02-11T03:13:51.590Z,969.47
2019-02-11T03:14:51.558Z,969.50
2019-02-11T03:15:51.511Z,969.50
2019-02-11T03:16:51.499Z,969.54
2019-02-11T03:17:51.424Z,969.58
2019-02-11T03:18:51.386Z,969.60
2019-02-11T03:19:51.340Z,969.67
2019-02-11T03:20:51.294Z,969.68
2019-02-11T03:21:51.245Z,969.72
2019-02-11T03:22:51.247Z,969.77
2019-02-11T03:23:51.170Z,969.81
2019-02-11T03:24:51.127Z,969.81
2019-02-11T03:25:51.078Z,969.83
2019-02-11T03:26:51.127Z,969.85
2019-02-11T03:27:51.005Z,969.82
2019-02-11T03:28:50.969Z,969.84
2019-02-11T03:29:50.939Z,969.93
2019-02-11T03:30:50.891Z,969.91
2019-02-11T03:31:50.841Z,969.93
2019-02-11T03:32:50.791Z,969.99
2019-02-11T03:33:50.752Z,969.97
2019-02-11T03:34:50.701Z,969.97
2019-02-11T03:35:50.670Z,970.05
2019-02-11T03:36:50.632Z,970.00
2019-02-11T03:37:50.593Z,970.06
2019-02-11T03:38:50.546Z,970.06
2019-02-11T03:39:50.519Z,970.09
2019-02-11T03:40:50.463Z,970.09
2019-02-11T03:41:50.414Z,970.21
2019-02-11T03:42:51.231Z,970.17
2019-02-11T03:43:50.327Z,970.23
2019-02-11T03:44:50.329Z,970.23
2019-02-11T03:45:50.267Z,970.25
2019-02-11T03:46:50.198Z,970.26
2019-02-11T03:47:50.188Z,970.27
2019-02-11T03:48:50.103Z,970.27
2019-02-11T03:49:50.078Z,970.34
2019-02-11T03:50:50.029Z,970.23
2019-02-11T03:51:49.990Z,970.32
2019-02-11T03:52:49.953Z,970.30
2019-02-11T03:53:49.930Z,970.45
2019-02-11T03:54:49.886Z,970.43
2019-02-11T03:55:49.823Z,970.40
2019-02-11T03:56:49.772Z,970.46
2019-02-11T03:57:49.733Z,970.50
2019-02-11T03:58:49.693Z,970.50
2019-02-11T03:59:49.722Z,970.55
2019-02-11T04:00:49.623Z,970.61
2019-02-11T04:01:49.593Z,970.63
2019-02-11T04:02:49.536Z,970.66
2019-02-11T04:03:49.483Z,970.66
2019-02-11T04:04:49.446Z,970.58
2019-02-11T04:05:49.399Z,970.64
2019-02-11T04:06:49.392Z,970.69
2019-02-11T04:07:49.312Z,970.67
2019-02-11T04:08:49.285Z,970.68
2019-02-11T04:09:49.250Z,970.67
2019-02-11T04:10:49.197Z,970.71
2019-02-11T04:11:49.150Z,970.79
2019-02-11T04:12:49.127Z,970.82
2019-02-11T04:13:49.069Z,970.80
2019-02-11T04:14:49.019Z,970.87
2019-02-11T04:15:48.977Z,970.76
2019-02-11T04:16:48.942Z,970.82
2019-02-11T04:17:50.845Z,970.94
2019-02-11T04:18:48.850Z,970.96
2019-02-11T04:19:48.834Z,970.94
2019-02-11T04:20:49.226Z,970.93
2019-02-11T04:21:48.726Z,971.08
2019-02-11T04:22:48.684Z,971.05
2019-02-11T04:23:48.670Z,971.10
2019-02-11T04:24:48.604Z,971.08
2019-02-11T04:25:48.566Z,971.15
2019-02-11T04:26:48.514Z,971.16
2019-02-11T04:27:48.470Z,971.18
2019-02-11T04:28:48.445Z,971.18
2019-02-11T04:29:48.429Z,971.22
2019-02-11T04:30:48.358Z,971.34
2019-02-11T04:31:48.341Z,971.33
2019-02-11T04:32:48.265Z,971.35
2019-02-11T04:33:48.245Z,971.34
2019-02-11T04:34:48.189Z,971.37
2019-02-11T04:35:48.150Z,971.37
2019-02-11T04:36:48.108Z,971.40
2019-02-11T04:37:48.122Z,971.41
2019-02-11T04:38:48.016Z,971.40
2019-02-11T04:39:47.967Z,971.50
2019-02-11T04:40:47.943Z,971.46
2019-02-11T04:41:47.911Z,971.52
2019-02-11T04:42:47.851Z,971.50
2019-02-11T04:43:47.816Z,971.54
2019-02-11T04:44:47.768Z,971.53
2019-02-11T04:45:47.716Z,971.59
2019-02-11T04:46:47.679Z,971.59
2019-02-11T04:47:47.690Z,971.60
2019-02-11T04:48:47.602Z,971.62
2019-02-11T04:49:47.548Z,971.72
2019-02-11T04:50:47.528Z,971.70
2019-02-11T04:51:47.462Z,971.70
2019-02-11T04:52:47.446Z,971.75
2019-02-11T04:53:47.411Z,971.76
2019-02-11T04:54:47.342Z,971.78
2019-02-11T04:55:47.310Z,971.74
2019-02-11T04:56:47.268Z,971.73
2019-02-11T04:57:47.214Z,971.73
2019-02-11T04:58:47.174Z,971.78
2019-02-11T04:59:47.174Z,971.74
2019-02-11T05:00:47.082Z,971.80
2019-02-11T05:01:47.044Z,971.80
2019-02-11T05:02:47.016Z,971.83
2019-02-11T05:03:46.966Z,971.83
2019-02-11T05:04:46.933Z,971.87
2019-02-11T05:05:46.874Z,971.91
2019-02-11T05:06:46.937Z,971.92
2019-02-11T05:07:46.790Z,971.89
2019-02-11T05:08:46.758Z,971.95
2019-02-11T05:09:46.728Z,971.96
2019-02-11T05:10:46.685Z,971.95
2019-02-11T05:11:46.652Z,971.97
2019-02-11T05:12:46.639Z,971.94
2019-02-11T05:13:46.546Z,971.98
2019-02-11T05:14:46.531Z,971.99
2019-02-11T05:15:46.467Z,972.03
2019-02-11T05:16:46.419Z,972.03
2019-02-11T05:17:46.405Z,972.03
2019-02-11T05:18:46.355Z,972.06
2019-02-11T05:19:46.339Z,972.14
2019-02-11T05:20:46.248Z,972.10
2019-02-11T05:21:46.208Z,972.11
2019-02-11T05:22:46.163Z,972.14
2019-02-11T05:23:46.200Z,972.12
2019-02-11T05:24:46.096Z,972.19
2019-02-11T05:25:46.062Z,972.13
2019-02-11T05:26:46.025Z,972.20
2019-02-11T05:27:45.971Z,972.21
2019-02-11T05:28:45.916Z,972.24
2019-02-11T05:29:45.915Z,972.22
2019-02-11T05:30:45.836Z,972.33
2019-02-11T05:31:45.823Z,972.24
2019-02-11T05:32:45.778Z,972.25
2019-02-11T05:33:45.712Z,972.27
2019-02-11T05:34:45.685Z,972.26
2019-02-11T05:35:45.644Z,972.27
2019-02-11T05:36:45.617Z,972.30
2019-02-11T05:37:45.581Z,972.30
2019-02-11T05:38:45.541Z,972.33
2019-02-11T05:39:45.484Z,972.34
2019-02-11T05:40:46.244Z,972.35
2019-02-11T05:41:45.391Z,972.46
2019-02-11T05:42:45.330Z,972.41
2019-02-11T05:43:45.303Z,972.34
2019-02-11T05:44:53.769Z,972.44
2019-02-11T05:45:45.225Z,972.43
2019-02-11T05:46:45.151Z,972.49
2019-02-11T05:47:45.175Z,972.46
2019-02-11T05:48:45.115Z,972.43
2019-02-11T05:49:45.074Z,972.53
2019-02-11T05:50:45.002Z,972.59
2019-02-11T05:51:44.993Z,972.53
2019-02-11T05:52:44.953Z,972.57
2019-02-11T05:53:44.863Z,972.59
2019-02-11T05:54:44.824Z,972.65
2019-02-11T05:55:44.785Z,972.69
2019-02-11T05:56:44.748Z,972.65
2019-02-11T05:57:44.799Z,972.69
2019-02-11T05:58:44.661Z,972.72
2019-02-11T05:59:44.616Z,972.80
2019-02-11T06:00:44.579Z,972.78
2019-02-11T06:01:44.549Z,972.80
2019-02-11T06:02:44.498Z,972.81
2019-02-11T06:03:44.450Z,972.85
2019-02-11T06:04:44.433Z,972.96
2019-02-11T06:05:44.368Z,972.94
2019-02-11T06:06:44.337Z,972.90
2019-02-11T06:07:44.317Z,972.98
2019-02-11T06:08:44.250Z,972.95
2019-02-11T06:09:44.242Z,973.05
2019-02-11T06:10:44.160Z,973.03
2019-02-11T06:11:44.751Z,973.11
2019-02-11T06:12:44.079Z,973.10
2019-02-11T06:13:44.044Z,973.18
2019-02-11T06:14:43.996Z,973.21
2019-02-11T06:15:44.000Z,973.21
2019-02-11T06:16:43.967Z,973.23
2019-02-11T06:17:43.888Z,973.27
2019-02-11T06:18:43.823Z,973.29
2019-02-11T06:19:43.812Z,973.31
2019-02-11T06:20:43.751Z,973.32
2019-02-11T06:21:43.709Z,973.37
2019-02-11T06:22:43.677Z,973.34
2019-02-11T06:23:43.621Z,973.39
2019-02-11T06:24:43.587Z,973.42
2019-02-11T06:25:43.538Z,973.43
2019-02-11T06:26:43.489Z,973.41
2019-02-11T06:27:43.448Z,973.45
2019-02-11T06:28:43.433Z,973.55
2019-02-11T06:29:43.381Z,973.53
2019-02-11T06:30:43.319Z,973.56
2019-02-11T06:31:43.272Z,973.57
2019-02-11T06:32:43.258Z,973.57
2019-02-11T06:33:43.199Z,973.63
2019-02-11T06:34:43.151Z,973.73
2019-02-11T06:35:43.123Z,973.65
2019-02-11T06:36:43.099Z,973.74
2019-02-11T06:37:43.039Z,973.74
2019-02-11T06:38:43.012Z,973.77
2019-02-11T06:39:42.978Z,973.80
2019-02-11T06:40:42.905Z,973.90
2019-02-11T06:41:42.855Z,973.93
2019-02-11T06:42:42.850Z,973.97
2019-02-11T06:43:42.787Z,973.96
2019-02-11T06:44:42.745Z,974.01
2019-02-11T06:45:42.728Z,974.04
2019-02-11T06:46:42.654Z,974.06
2019-02-11T06:47:42.648Z,974.11
2019-02-11T06:48:42.599Z,974.10
2019-02-11T06:49:42.589Z,974.16
2019-02-11T06:50:42.484Z,974.12
2019-02-11T06:51:42.483Z,974.18
2019-02-11T06:52:42.446Z,974.24
2019-02-11T06:53:42.362Z,974.28
2019-02-11T06:54:42.324Z,974.32
2019-02-11T06:55:42.283Z,974.30
2019-02-11T06:56:42.244Z,974.34
2019-02-11T06:57:42.228Z,974.37
2019-02-11T06:58:42.153Z,974.34
2019-02-11T06:59:42.132Z,974.39
2019-02-11T07:00:42.079Z,974.39
2019-02-11T07:01:42.044Z,974.40
2019-02-11T07:02:41.986Z,974.43
2019-02-11T07:03:41.952Z,974.46
2019-02-11T07:04:41.912Z,974.51
2019-02-11T07:05:41.959Z,974.58
2019-02-11T07:06:41.827Z,974.54
2019-02-11T07:07:41.794Z,974.65
2019-02-11T07:08:41.741Z,974.66
2019-02-11T07:09:41.710Z,974.72
2019-02-11T07:10:41.656Z,974.71
2019-02-11T07:11:41.619Z,974.72
2019-02-11T07:12:41.643Z,974.72
2019-02-11T07:13:41.549Z,974.76
2019-02-11T07:14:41.518Z,974.80
2019-02-11T07:15:41.474Z,974.85
2019-02-11T07:16:41.421Z,974.88
2019-02-11T07:17:41.378Z,974.89
2019-02-11T07:18:41.339Z,974.89
2019-02-11T07:19:41.319Z,974.86
2019-02-11T07:20:41.258Z,974.86
2019-02-11T07:21:41.199Z,974.86
2019-02-11T07:22:41.170Z,974.96
2019-02-11T07:23:41.236Z,974.95
2019-02-11T07:24:41.061Z,974.96
2019-02-11T07:25:41.033Z,975.01
2019-02-11T07:26:41.011Z,974.95
2019-02-11T07:27:40.951Z,975.01
2019-02-11T07:28:40.918Z,974.91
2019-02-11T07:29:40.872Z,975.01
2019-02-11T07:30:40.820Z,975.13
2019-02-11T07:31:40.777Z,975.15
2019-02-11T07:32:40.751Z,975.09
2019-02-11T07:33:40.713Z,975.19
2019-02-11T07:34:40.670Z,975.26
2019-02-11T07:35:40.626Z,975.24
2019-02-11T07:36:40.591Z,975.22
2019-02-11T07:37:40.547Z,975.27
2019-02-11T07:38:40.533Z,975.31
2019-02-11T07:39:40.455Z,975.34
2019-02-11T07:40:40.419Z,975.44
2019-02-11T07:41:40.393Z,975.38
2019-02-11T07:42:40.386Z,975.38
2019-02-11T07:43:40.291Z,975.39
2019-02-11T07:44:40.251Z,975.50
2019-02-11T07:45:40.215Z,975.49
2019-02-11T07:46:40.166Z,975.51
2019-02-11T07:47:40.124Z,975.49
2019-02-11T07:48:40.122Z,975.56
2019-02-11T07:49:40.078Z,975.59
2019-02-11T07:50:40.008Z,975.57
2019-02-11T07:51:42.359Z,975.61
2019-02-11T07:52:39.923Z,975.59
2019-02-11T07:53:39.885Z,975.65
2019-02-11T07:54:39.874Z,975.64
2019-02-11T07:55:39.808Z,975.66
2019-02-11T07:56:39.749Z,975.64
2019-02-11T07:57:39.719Z,975.66
2019-02-11T07:58:39.681Z,975.68
2019-02-11T07:59:39.627Z,975.70
2019-02-11T08:00:39.590Z,975.74
2019-02-11T08:01:39.541Z,975.77
2019-02-11T08:02:39.505Z,975.75
2019-02-11T08:03:39.458Z,975.82
2019-02-11T08:04:39.437Z,975.73
2019-02-11T08:05:39.376Z,975.86
2019-02-11T08:06:39.344Z,975.80
2019-02-11T08:07:39.339Z,975.79
2019-02-11T08:08:39.244Z,975.88
2019-02-11T08:09:39.231Z,975.84
2019-02-11T08:10:39.187Z,975.94
2019-02-11T08:11:39.189Z,975.92
2019-02-11T08:12:39.083Z,975.93
2019-02-11T08:13:39.056Z,975.93
2019-02-11T08:14:39.012Z,976.01
2019-02-11T08:15:39.037Z,976.00
2019-02-11T08:16:38.930Z,976.02
2019-02-11T08:17:38.883Z,976.05
2019-02-11T08:18:38.852Z,976.10
2019-02-11T08:19:38.804Z,975.99
2019-02-11T08:20:38.775Z,976.07
2019-02-11T08:21:38.721Z,976.15
2019-02-11T08:22:38.685Z,976.11
2019-02-11T08:23:38.667Z,976.07
2019-02-11T08:24:38.611Z,976.13
2019-02-11T08:25:38.632Z,976.14
2019-02-11T08:26:38.531Z,976.07
2019-02-11T08:27:38.481Z,976.14
2019-02-11T08:28:38.447Z,976.14
2019-02-11T08:29:38.396Z,976.14
2019-02-11T08:30:38.363Z,976.13
2019-02-11T08:31:38.313Z,976.16
2019-02-11T08:32:38.279Z,976.15
2019-02-11T08:33:38.242Z,976.23
2019-02-11T08:34:38.198Z,976.18
2019-02-11T08:35:38.162Z,976.25
2019-02-11T08:36:38.123Z,976.23
2019-02-11T08:37:38.095Z,976.32
2019-02-11T08:38:38.041Z,976.38
2019-02-11T08:39:38.031Z,976.38
2019-02-11T08:40:37.965Z,976.32
2019-02-11T08:41:37.928Z,976.43
2019-02-11T08:42:37.897Z,976.58
2019-02-11T08:43:37.884Z,976.45
2019-02-11T08:44:37.843Z,976.51
2019-02-11T08:45:37.770Z,976.53
2019-02-11T08:46:37.734Z,976.54
2019-02-11T08:47:37.755Z,976.54
2019-02-11T08:48:37.755Z,976.58
2019-02-11T08:49:37.637Z,976.64
2019-02-11T08:50:37.592Z,976.60
2019-02-11T08:51:37.549Z,976.63
2019-02-11T08:52:37.518Z,976.66
2019-02-11T08:53:37.507Z,976.69
2019-02-11T08:54:37.519Z,976.71
2019-02-11T08:55:37.396Z,976.66
2019-02-11T08:56:37.364Z,976.75
2019-02-11T08:57:37.317Z,976.72
2019-02-11T08:58:37.286Z,976.73
2019-02-11T08:59:37.246Z,976.72
2019-02-11T09:00:37.209Z,976.81
2019-02-11T09:01:37.178Z,976.87
2019-02-11T09:02:37.112Z,976.82
2019-02-11T09:03:37.090Z,976.76
2019-02-11T09:04:37.032Z,976.86
2019-02-11T09:05:37.007Z,976.91
2019-02-11T09:06:36.960Z,976.91
2019-02-11T09:07:36.927Z,976.87
2019-02-11T09:08:36.951Z,976.95
2019-02-11T09:09:36.844Z,976.84
2019-02-11T09:10:36.846Z,976.92
2019-02-11T09:11:36.774Z,976.97
2019-02-11T09:12:36.790Z,976.86
2019-02-11T09:13:36.705Z,976.95
2019-02-11T09:14:36.658Z,976.95
2019-02-11T09:15:36.614Z,977.05
2019-02-11T09:16:36.583Z,977.04
2019-02-11T09:17:36.559Z,977.04
2019-02-11T09:18:36.494Z,977.02
2019-02-11T09:19:36.473Z,977.15
2019-02-11T09:20:36.422Z,977.13
2019-02-11T09:21:36.403Z,977.19
2019-02-11T09:22:36.337Z,977.08
2019-02-11T09:23:36.313Z,977.23
2019-02-11T09:24:36.249Z,977.30
2019-02-11T09:25:36.216Z,977.18
2019-02-11T09:26:36.204Z,977.17
2019-02-11T09:27:36.147Z,977.27
2019-02-11T09:28:36.124Z,977.23
2019-02-11T09:29:36.075Z,977.30
2019-02-11T09:30:36.048Z,977.35
2019-02-11T09:31:35.992Z,977.39
2019-02-11T09:32:35.979Z,977.39
2019-02-11T09:33:35.907Z,977.36
2019-02-11T09:34:35.860Z,977.38
2019-02-11T09:35:35.831Z,977.39
2019-02-11T09:36:35.782Z,977.40
2019-02-11T09:37:36.788Z,977.37
2019-02-11T09:38:35.700Z,977.39
2019-02-11T09:39:35.674Z,977.37
2019-02-11T09:40:35.632Z,977.40
2019-02-11T09:41:35.598Z,977.41
2019-02-11T09:42:35.552Z,977.47
2019-02-11T09:43:35.546Z,977.46
2019-02-11T09:44:35.457Z,977.51
2019-02-11T09:45:35.439Z,977.52
2019-02-11T09:46:35.394Z,977.49
2019-02-11T09:47:35.366Z,977.44
2019-02-11T09:48:35.313Z,977.42
2019-02-11T09:49:35.259Z,977.47
2019-02-11T09:50:35.226Z,977.37
2019-02-11T09:51:35.191Z,977.42
2019-02-11T09:52:35.154Z,977.48
2019-02-11T09:53:35.819Z,977.42
2019-02-11T09:54:35.088Z,977.40
2019-02-11T09:55:35.053Z,977.34
2019-02-11T09:56:34.993Z,977.27
2019-02-11T09:57:34.959Z,977.30
2019-02-11T09:58:34.921Z,977.38
2019-02-11T09:59:34.871Z,977.28
2019-02-11T10:00:34.830Z,977.25
2019-02-11T10:01:34.803Z,977.33
2019-02-11T10:02:34.781Z,977.41
2019-02-11T10:03:34.726Z,977.49
2019-02-11T10:04:34.687Z,977.38
2019-02-11T10:05:34.689Z,977.43
2019-02-11T10:06:34.630Z,977.48
2019-02-11T10:07:34.572Z,977.55
2019-02-11T10:08:34.574Z,977.43
2019-02-11T10:09:34.512Z,977.60
2019-02-11T10:10:34.497Z,977.59
2019-02-11T10:11:34.445Z,977.67
2019-02-11T10:12:34.415Z,977.59
2019-02-11T10:13:34.379Z,977.61
2019-02-11T10:14:34.344Z,977.69
2019-02-11T10:15:34.313Z,977.71
2019-02-11T10:16:34.360Z,977.76
2019-02-11T10:17:34.235Z,977.72
2019-02-11T10:18:34.209Z,977.76
2019-02-11T10:19:34.176Z,977.68
2019-02-11T10:20:34.142Z,977.83
2019-02-11T10:21:34.097Z,977.84
2019-02-11T10:22:34.069Z,977.87
2019-02-11T10:23:34.060Z,977.81
2019-02-11T10:24:34.037Z,977.82
2019-02-11T10:25:33.973Z,977.88
2019-02-11T10:26:33.979Z,978.00
2019-02-11T10:27:33.900Z,977.88
2019-02-11T10:28:33.864Z,978.00
2019-02-11T10:29:33.848Z,978.07
2019-02-11T10:30:33.815Z,978.01
2019-02-11T10:31:33.761Z,977.91
2019-02-11T10:32:33.730Z,978.06
2019-02-11T10:33:33.702Z,978.06
2019-02-11T10:34:33.772Z,978.10
2019-02-11T10:35:41.878Z,978.16
2019-02-11T10:36:33.598Z,978.11
2019-02-11T10:37:33.549Z,978.18
2019-02-11T10:38:36.490Z,978.20
2019-02-11T10:39:33.511Z,978.13
2019-02-11T10:40:33.483Z,978.26
2019-02-11T10:41:33.411Z,978.30
2019-02-11T10:42:33.381Z,978.31
2019-02-11T10:43:33.328Z,978.25
2019-02-11T10:44:33.315Z,978.28
2019-02-11T10:45:36.587Z,978.25
2019-02-11T10:46:33.260Z,978.33
2019-02-11T10:47:33.186Z,978.21
2019-02-11T10:48:33.123Z,978.30
2019-02-11T10:49:33.098Z,978.20
2019-02-11T10:50:33.075Z,978.25
2019-02-11T10:51:33.046Z,978.28
2019-02-11T10:52:32.983Z,978.38
2019-02-11T10:53:32.945Z,978.29
2019-02-11T10:54:32.925Z,978.32
2019-02-11T10:55:32.882Z,978.30
2019-02-11T10:56:32.845Z,978.27
2019-02-11T10:57:32.795Z,978.43
2019-02-11T10:58:32.756Z,978.41
2019-02-11T10:59:32.729Z,978.41
2019-02-11T11:00:32.682Z,978.46
2019-02-11T11:01:32.642Z,978.38
2019-02-11T11:02:32.594Z,978.45
2019-02-11T11:03:32.633Z,978.50
2019-02-11T11:04:32.529Z,978.57
2019-02-11T11:05:32.535Z,978.54
2019-02-11T11:06:32.492Z,978.44
2019-02-11T11:07:32.463Z,978.50
2019-02-11T11:08:32.361Z,978.54
2019-02-11T11:09:32.333Z,978.56
2019-02-11T11:10:32.287Z,978.57
2019-02-11T11:11:32.252Z,978.49
2019-02-11T11:12:32.209Z,978.61
2019-02-11T11:13:32.190Z,978.57
2019-02-11T11:14:32.141Z,978.78
2019-02-11T11:15:32.128Z,978.67
2019-02-11T11:16:32.098Z,978.77
2019-02-11T11:17:32.067Z,978.73
2019-02-11T11:18:32.001Z,978.66
2019-02-11T11:19:31.950Z,978.78
2019-02-11T11:20:31.934Z,978.87
2019-02-11T11:21:31.902Z,978.74
2019-02-11T11:22:31.820Z,978.86
2019-02-11T11:23:31.839Z,978.80
2019-02-11T11:24:31.774Z,978.86
2019-02-11T11:25:31.725Z,978.85
2019-02-11T11:26:31.719Z,978.89
2019-02-11T11:27:31.662Z,978.99
2019-02-11T11:28:31.612Z,978.98
2019-02-11T11:29:31.559Z,978.96
2019-02-11T11:30:31.520Z,979.00
2019-02-11T11:31:31.492Z,979.03
2019-02-11T11:32:31.451Z,979.04
2019-02-11T11:33:31.442Z,978.95
2019-02-11T11:34:31.381Z,979.04
2019-02-11T11:35:31.357Z,979.07
2019-02-11T11:36:31.289Z,979.02
2019-02-11T11:37:31.247Z,979.11
2019-02-11T11:38:31.217Z,979.11
2019-02-11T11:39:31.169Z,979.12
2019-02-11T11:40:31.130Z,979.08
2019-02-11T11:41:31.101Z,979.12
2019-02-11T11:42:31.061Z,979.13
2019-02-11T11:43:31.015Z,979.21
2019-02-11T11:44:30.984Z,979.20
2019-02-11T11:45:30.946Z,979.18
2019-02-11T11:46:38.688Z,979.20
2019-02-11T11:47:30.862Z,979.22
2019-02-11T11:48:30.839Z,979.23
2019-02-11T11:49:30.820Z,979.25
2019-02-11T11:50:30.760Z,979.25
2019-02-11T11:51:30.747Z,979.20
2019-02-11T11:52:30.666Z,979.20
2019-02-11T11:53:30.667Z,979.29
2019-02-11T11:54:30.599Z,979.22
2019-02-11T11:55:30.555Z,979.24
2019-02-11T11:56:30.539Z,979.18
2019-02-11T11:57:30.479Z,979.31
2019-02-11T11:58:30.438Z,979.34
2019-02-11T11:59:30.495Z,979.41
2019-02-11T12:00:30.367Z,979.33
2019-02-11T12:01:30.322Z,979.35
2019-02-11T12:02:30.287Z,979.35
2019-02-11T12:03:30.254Z,979.24
2019-02-11T12:04:30.227Z,979.38
2019-02-11T12:05:30.203Z,979.43
2019-02-11T12:06:30.127Z,979.37
2019-02-11T12:07:30.101Z,979.47
2019-02-11T12:08:30.044Z,979.45
2019-02-11T12:09:30.058Z,979.48
2019-02-11T12:10:29.976Z,979.42
2019-02-11T12:11:29.950Z,979.45
2019-02-11T12:12:29.893Z,979.45
2019-02-11T12:13:29.860Z,979.45
2019-02-11T12:14:29.852Z,979.49
2019-02-11T12:15:29.786Z,979.49
2019-02-11T12:16:29.775Z,979.57
2019-02-11T12:17:29.713Z,979.51
2019-02-11T12:18:29.718Z,979.61
2019-02-11T12:19:29.631Z,979.56
2019-02-11T12:20:32.973Z,979.65
2019-02-11T12:21:29.537Z,979.61
2019-02-11T12:22:29.511Z,979.61
2019-02-11T12:23:29.477Z,979.71
2019-02-11T12:24:29.445Z,979.68
2019-02-11T12:25:29.410Z,979.62
2019-02-11T12:26:29.415Z,979.77
2019-02-11T12:27:29.341Z,979.77
2019-02-11T12:28:29.863Z,979.87